Flight Track Log - Related Links

Times and Time Zones

All times are in EDT time to prevent confusion due to time zone crossing. See the N682RW flight status page for this flight to view local times or setup timezone preferences in your user account.

Time Position Orientation Groundspeed Altitude Reporting Facility
EDT Latitude Longitude Course Direction KTS MPH feet Rate Location/Type
Tue 03:12:01 PM 42.1911 -83.3550 211° Southwest 182 209 1,100  Level Cleveland Center
Tue 03:12:32 PM 42.1656 -83.3761 211° Southwest 219 252 2,500 3,196 Climbing Cleveland Center
Tue 03:13:33 PM 42.1103 -83.4297 216° Southwest 249 287 6,000 3,468 Climbing Cleveland Center
Tue 03:14:21 PM 42.1022 -83.4939 260° West 252 290 8,800 2,389 Climbing Cleveland Center
Tue 03:15:21 PM 42.1353 -83.5850 296° West 297 342 10,300 1,400 Climbing Cleveland Center
Tue 03:16:21 PM 42.1475 -83.6836 280° West 311 358 11,600 1,500 Climbing Cleveland Center
Tue 03:17:21 PM 42.1736 -83.7942 288° West 311 358 13,300 2,200 Climbing Cleveland Center
Tue 03:18:21 PM 42.1992 -83.9217 285° West 332 382 16,000 2,750 Climbing Cleveland Center
Tue 03:19:21 PM 42.1639 -84.0514 250° West 338 389 18,800 2,550 Climbing Cleveland Center
Tue 03:20:21 PM 42.1100 -84.1772 240° Southwest 366 421 21,100 1,600 Climbing Cleveland Center
Tue 03:21:21 PM 42.0556 -84.3197 243° Southwest 386 444 22,000 289 Climbing Cleveland Center
Tue 03:23:28 PM 41.9519 -84.5667 241° Southwest 394 453 22,000  Level Chicago Center
Tue 03:24:30 PM 41.8881 -84.7214 241° Southwest 396 456 22,000  Level Chicago Center
Tue 03:25:32 PM 41.8356 -84.8525 242° Southwest 399 459 22,000  Level Chicago Center
Tue 03:26:34 PM 41.7808 -84.9831 241° Southwest 401 461 22,000  Level Chicago Center
Tue 03:27:36 PM 41.7261 -85.1156 241° Southwest 406 467 22,000  Level Chicago Center
Tue 03:28:38 PM 41.6789 -85.2544 246° West 412 474 22,000  Level Chicago Center
Tue 03:29:40 PM 41.6617 -85.4072 261° West 398 458 22,000 -242 Level Chicago Center
Tue 03:30:42 PM 41.6406 -85.5636 260° West 402 463 21,500 -1,200 Descending Chicago Center
Tue 03:31:45 PM 41.6206 -85.7053 259° West 391 450 19,500 -2,160 Descending Chicago Center
Tue 03:32:47 PM 41.6022 -85.8414 260° West 377 434 17,000 -2,419 Descending Chicago Center
Tue 03:33:49 PM 41.5806 -85.9967 259° West 356 410 14,500 -2,226 Descending Chicago Center
Tue 03:34:51 PM 41.5622 -86.1233 259° West 350 403 12,400 -1,645 Descending Chicago Center
Tue 03:35:53 PM 41.5442 -86.2489 259° West 347 399 11,100 -1,113 Descending Chicago Center
Tue 03:36:55 PM 41.5264 -86.3722 259° West 341 392 10,100 -484 Descending Chicago Center
Tue 03:37:57 PM 41.5217 -86.4967 267° West 333 383 10,100  Level Chicago Center
Tue 03:38:59 PM 41.5217 -86.6456 270° West 335 386 10,100  Level Chicago Center
Tue 03:40:01 PM 41.5208 -86.7578 269° West 338 389 10,100 -532 Level Chicago Center
Tue 03:41:03 PM 41.5206 -86.8703 270° West 308 354 9,000 -1,210 Descending Chicago Center
Tue 03:42:05 PM 41.5178 -86.9947 268° West 280 322 7,600 -1,296 Descending Chicago Center
Tue 03:43:08 PM 41.5178 -87.0892 270° West 261 300 6,300 -960 Descending Chicago Center
Tue 03:44:10 PM 41.5175 -87.1822 270° West 255 293 5,600 -723 Descending Chicago Center
Tue 03:44:31 PM 41.5333 -87.2167 302° West 251 289 5,300 -1,172 Descending Chicago TRACON
Tue 03:45:37 PM 41.5667 -87.3167 294° West 238 274 3,900 -667 Descending Chicago TRACON
Tue 03:46:37 PM 41.5833 -87.3833 289° West 202 232 3,900  Level Chicago TRACON
Tue 03:47:16 PM 41.5969 -87.4233 294° West 215 247 3,900  Level Chicago Center
Tue 03:48:18 PM 41.6219 -87.4856 298° West 200 230 3,900  Level Chicago Center
Tue 03:49:20 PM 41.6492 -87.5494 300° West 198 228 3,900  Level Chicago Center
Tue 03:50:22 PM 41.6789 -87.6097 303° West 197 227 3,900 -385 Level Chicago Center
Tue 03:50:38 PM 41.7000 -87.6333 320° Northwest 198 228 3,400 -1,286 Descending Chicago TRACON
Tue 03:51:32 PM 41.7333 -87.6833 312° West 195 224 2,400 -789 Descending Chicago TRACON
Tue 03:52:32 PM 41.7667 -87.6833 360° North 184 212 1,900 -500 Descending Chicago TRACON
Tue 03:53:32 PM 41.8167 -87.7000 346° North 152 175 1,400 -500 Descending Chicago TRACON

Login

Don't have an account? Register now (free) for customized features, flight alerts, and more!